sensor_id;sensor_type;location;lat;lon;timestamp;P1;durP1;ratioP1;P2;durP2;ratioP2
55710;SDS011;41612;51.994;5.880;2023-04-24T04:31:02;47.30;;;32.85;;
55710;SDS011;41612;51.994;5.880;2023-04-24T04:33:29;50.33;;;33.60;;
55710;SDS011;41612;51.994;5.880;2023-04-24T04:35:55;46.45;;;31.60;;
55710;SDS011;41612;51.994;5.880;2023-04-24T04:38:23;47.72;;;30.20;;
55710;SDS011;41612;51.994;5.880;2023-04-24T04:41:11;38.70;;;28.42;;
55710;SDS011;41612;51.994;5.880;2023-04-24T04:43:37;43.22;;;31.10;;
55710;SDS011;41612;51.994;5.880;2023-04-24T04:46:05;40.38;;;27.48;;
55710;SDS011;41612;51.994;5.880;2023-04-24T04:48:52;37.85;;;26.23;;
55710;SDS011;41612;51.994;5.880;2023-04-24T04:51:19;47.72;;;28.48;;
55710;SDS011;41612;51.994;5.880;2023-04-24T04:53:45;45.35;;;29.90;;
55710;SDS011;41612;51.994;5.880;2023-04-24T04:56:11;45.95;;;29.95;;
55710;SDS011;41612;51.994;5.880;2023-04-24T04:58:44;44.05;;;29.65;;
55710;SDS011;41612;51.994;5.880;2023-04-24T05:01:13;45.88;;;30.63;;
55710;SDS011;41612;51.994;5.880;2023-04-24T05:03:42;46.90;;;29.70;;
55710;SDS011;41612;51.994;5.880;2023-04-24T05:06:11;44.97;;;29.55;;
55710;SDS011;41612;51.994;5.880;2023-04-24T05:08:40;43.20;;;27.75;;
55710;SDS011;41612;51.994;5.880;2023-04-24T05:11:10;30.17;;;22.13;;
55710;SDS011;41612;51.994;5.880;2023-04-24T05:13:38;38.67;;;27.55;;
55710;SDS011;41612;51.994;5.880;2023-04-24T05:16:10;42.83;;;27.92;;
55710;SDS011;41612;51.994;5.880;2023-04-24T05:18:36;30.80;;;21.05;;
55710;SDS011;41612;51.994;5.880;2023-04-24T05:21:02;31.90;;;22.25;;
55710;SDS011;41612;51.994;5.880;2023-04-24T05:23:28;38.05;;;24.20;;
55710;SDS011;41612;51.994;5.880;2023-04-24T05:25:55;36.05;;;25.80;;
55710;SDS011;41612;51.994;5.880;2023-04-24T05:28:21;36.25;;;25.73;;
55710;SDS011;41612;51.994;5.880;2023-04-24T05:30:59;29.95;;;19.92;;
55710;SDS011;41612;51.994;5.880;2023-04-24T05:33:26;33.08;;;22.23;;
55710;SDS011;41612;51.994;5.880;2023-04-24T05:35:51;31.48;;;21.60;;
55710;SDS011;41612;51.994;5.880;2023-04-24T05:38:17;31.42;;;20.92;;
55710;SDS011;41612;51.994;5.880;2023-04-24T05:40:45;30.55;;;22.65;;
55710;SDS011;41612;51.994;5.880;2023-04-24T05:43:11;27.25;;;18.80;;
55710;SDS011;41612;51.994;5.880;2023-04-24T05:45:38;24.52;;;18.67;;
55710;SDS011;41612;51.994;5.880;2023-04-24T05:48:05;27.33;;;19.05;;
55710;SDS011;41612;51.994;5.880;2023-04-24T05:50:31;26.65;;;18.02;;
55710;SDS011;41612;51.994;5.880;2023-04-24T05:52:57;23.45;;;17.45;;
55710;SDS011;41612;51.994;5.880;2023-04-24T05:55:27;26.80;;;17.20;;
55710;SDS011;41612;51.994;5.880;2023-04-24T05:57:56;24.67;;;16.60;;
55710;SDS011;41612;51.994;5.880;2023-04-24T06:00:23;21.90;;;16.08;;
55710;SDS011;41612;51.994;5.880;2023-04-24T06:02:59;20.95;;;15.00;;
55710;SDS011;41612;51.994;5.880;2023-04-24T06:05:25;21.17;;;14.77;;
55710;SDS011;41612;51.994;5.880;2023-04-24T06:07:52;18.33;;;13.50;;
55710;SDS011;41612;51.994;5.880;2023-04-24T06:10:20;18.25;;;14.82;;
55710;SDS011;41612;51.994;5.880;2023-04-24T06:12:46;18.08;;;12.82;;
55710;SDS011;41612;51.994;5.880;2023-04-24T06:15:16;21.38;;;14.38;;
55710;SDS011;41612;51.994;5.880;2023-04-24T06:17:55;19.25;;;13.30;;
55710;SDS011;41612;51.994;5.880;2023-04-24T06:20:21;18.38;;;13.82;;
55710;SDS011;41612;51.994;5.880;2023-04-24T06:22:47;18.02;;;12.82;;
55710;SDS011;41612;51.994;5.880;2023-04-24T06:25:13;17.75;;;13.43;;
55710;SDS011;41612;51.994;5.880;2023-04-24T06:27:39;15.77;;;12.80;;
55710;SDS011;41612;51.994;5.880;2023-04-24T06:30:07;16.15;;;11.73;;
55710;SDS011;41612;51.994;5.880;2023-04-24T06:32:33;16.25;;;12.07;;
55710;SDS011;41612;51.994;5.880;2023-04-24T06:34:59;15.80;;;10.95;;
55710;SDS011;41612;51.994;5.880;2023-04-24T06:37:26;14.48;;;10.27;;
55710;SDS011;41612;51.994;5.880;2023-04-24T06:39:52;13.35;;;10.07;;
55710;SDS011;41612;51.994;5.880;2023-04-24T06:42:17;11.95;;;9.30;;
55710;SDS011;41612;51.994;5.880;2023-04-24T06:44:48;13.82;;;9.13;;
55710;SDS011;41612;51.994;5.880;2023-04-24T06:47:16;10.98;;;9.02;;
55710;SDS011;41612;51.994;5.880;2023-04-24T06:49:42;12.73;;;8.90;;
55710;SDS011;41612;51.994;5.880;2023-04-24T06:52:07;10.93;;;8.43;;
55710;SDS011;41612;51.994;5.880;2023-04-24T06:54:34;11.98;;;8.88;;
55710;SDS011;41612;51.994;5.880;2023-04-24T06:57:02;10.68;;;9.00;;
55710;SDS011;41612;51.994;5.880;2023-04-24T06:59:28;8.73;;;6.63;;
55710;SDS011;41612;51.994;5.880;2023-04-24T07:01:56;9.38;;;6.28;;
55710;SDS011;41612;51.994;5.880;2023-04-24T07:04:22;9.85;;;7.22;;
55710;SDS011;41612;51.994;5.880;2023-04-24T07:06:50;8.07;;;6.25;;
55710;SDS011;41612;51.994;5.880;2023-04-24T07:09:16;9.35;;;6.40;;
55710;SDS011;41612;51.994;5.880;2023-04-24T07:11:43;8.88;;;6.13;;
55710;SDS011;41612;51.994;5.880;2023-04-24T07:14:10;7.53;;;5.10;;
55710;SDS011;41612;51.994;5.880;2023-04-24T07:16:36;10.07;;;5.90;;
55710;SDS011;41612;51.994;5.880;2023-04-24T07:19:02;6.15;;;4.60;;
55710;SDS011;41612;51.994;5.880;2023-04-24T07:21:27;7.30;;;4.70;;
55710;SDS011;41612;51.994;5.880;2023-04-24T07:23:53;6.78;;;5.20;;
55710;SDS011;41612;51.994;5.880;2023-04-24T07:26:19;7.20;;;3.97;;
55710;SDS011;41612;51.994;5.880;2023-04-24T07:28:45;5.97;;;4.82;;
55710;SDS011;41612;51.994;5.880;2023-04-24T07:31:11;7.57;;;4.75;;
55710;SDS011;41612;51.994;5.880;2023-04-24T07:33:37;6.55;;;5.25;;
55710;SDS011;41612;51.994;5.880;2023-04-24T07:36:03;5.47;;;3.33;;
55710;SDS011;41612;51.994;5.880;2023-04-24T07:38:30;4.90;;;3.75;;
55710;SDS011;41612;51.994;5.880;2023-04-24T07:40:56;6.22;;;4.55;;
55710;SDS011;41612;51.994;5.880;2023-04-24T07:43:21;6.75;;;5.43;;
55710;SDS011;41612;51.994;5.880;2023-04-24T07:45:49;6.28;;;4.63;;
55710;SDS011;41612;51.994;5.880;2023-04-24T07:48:15;6.50;;;5.20;;
55710;SDS011;41612;51.994;5.880;2023-04-24T07:50:42;7.00;;;4.85;;
55710;SDS011;41612;51.994;5.880;2023-04-24T07:53:11;6.03;;;4.88;;
55710;SDS011;41612;51.994;5.880;2023-04-24T07:55:37;7.93;;;5.00;;
55710;SDS011;41612;51.994;5.880;2023-04-24T07:58:03;7.15;;;4.80;;
55710;SDS011;41612;51.994;5.880;2023-04-24T08:00:29;7.97;;;5.88;;
55710;SDS011;41612;51.994;5.880;2023-04-24T08:02:55;8.95;;;5.95;;
55710;SDS011;41612;51.994;5.880;2023-04-24T08:05:20;8.18;;;5.20;;
55710;SDS011;41612;51.994;5.880;2023-04-24T08:07:46;5.85;;;4.35;;
55710;SDS011;41612;51.994;5.880;2023-04-24T08:10:13;7.60;;;5.00;;
55710;SDS011;41612;51.994;5.880;2023-04-24T08:12:40;11.57;;;7.47;;
55710;SDS011;41612;51.994;5.880;2023-04-24T08:15:06;8.93;;;5.32;;
55710;SDS011;41612;51.994;5.880;2023-04-24T08:17:33;8.20;;;5.32;;
55710;SDS011;41612;51.994;5.880;2023-04-24T08:20:00;9.75;;;7.07;;
55710;SDS011;41612;51.994;5.880;2023-04-24T08:22:27;6.85;;;5.60;;
55710;SDS011;41612;51.994;5.880;2023-04-24T08:24:54;11.65;;;5.90;;
55710;SDS011;41612;51.994;5.880;2023-04-24T08:27:21;7.10;;;5.13;;
55710;SDS011;41612;51.994;5.880;2023-04-24T08:29:46;8.63;;;5.18;;
55710;SDS011;41612;51.994;5.880;2023-04-24T08:32:12;11.40;;;7.43;;
55710;SDS011;41612;51.994;5.880;2023-04-24T08:34:38;10.23;;;5.32;;
55710;SDS011;41612;51.994;5.880;2023-04-24T08:37:03;8.68;;;6.32;;
55710;SDS011;41612;51.994;5.880;2023-04-24T08:39:29;9.95;;;6.63;;
55710;SDS011;41612;51.994;5.880;2023-04-24T08:41:55;9.05;;;6.28;;
55710;SDS011;41612;51.994;5.880;2023-04-24T08:44:21;16.08;;;8.48;;
55710;SDS011;41612;51.994;5.880;2023-04-24T08:46:50;14.48;;;8.35;;
55710;SDS011;41612;51.994;5.880;2023-04-24T08:49:16;11.63;;;7.70;;
55710;SDS011;41612;51.994;5.880;2023-04-24T08:51:43;9.25;;;6.10;;
55710;SDS011;41612;51.994;5.880;2023-04-24T08:54:11;13.45;;;7.10;;
55710;SDS011;41612;51.994;5.880;2023-04-24T08:56:38;7.22;;;4.97;;
55710;SDS011;41612;51.994;5.880;2023-04-24T08:59:08;8.18;;;4.70;;
55710;SDS011;41612;51.994;5.880;2023-04-24T09:01:34;11.88;;;6.70;;
55710;SDS011;41612;51.994;5.880;2023-04-24T09:04:02;9.18;;;5.75;;
55710;SDS011;41612;51.994;5.880;2023-04-24T09:06:29;10.35;;;5.90;;
55710;SDS011;41612;51.994;5.880;2023-04-24T09:08:58;9.05;;;5.65;;
55710;SDS011;41612;51.994;5.880;2023-04-24T09:11:26;8.68;;;5.90;;
55710;SDS011;41612;51.994;5.880;2023-04-24T09:13:53;9.80;;;5.38;;
55710;SDS011;41612;51.994;5.880;2023-04-24T09:16:20;17.88;;;6.50;;
55710;SDS011;41612;51.994;5.880;2023-04-24T09:18:48;10.55;;;4.72;;
55710;SDS011;41612;51.994;5.880;2023-04-24T09:21:16;8.25;;;4.97;;
55710;SDS011;41612;51.994;5.880;2023-04-24T09:23:45;7.55;;;4.68;;
55710;SDS011;41612;51.994;5.880;2023-04-24T09:26:56;10.23;;;5.07;;
55710;SDS011;41612;51.994;5.880;2023-04-24T09:29:29;17.40;;;5.55;;
55710;SDS011;41612;51.994;5.880;2023-04-24T09:31:58;13.93;;;5.68;;
55710;SDS011;41612;51.994;5.880;2023-04-24T09:34:27;6.65;;;4.15;;
55710;SDS011;41612;51.994;5.880;2023-04-24T09:36:53;7.90;;;3.67;;
55710;SDS011;41612;51.994;5.880;2023-04-24T09:39:19;13.48;;;3.90;;
55710;SDS011;41612;51.994;5.880;2023-04-24T09:41:46;6.07;;;3.20;;
55710;SDS011;41612;51.994;5.880;2023-04-24T09:44:25;8.20;;;3.40;;
55710;SDS011;41612;51.994;5.880;2023-04-24T09:46:59;11.43;;;3.95;;
55710;SDS011;41612;51.994;5.880;2023-04-24T09:49:26;9.70;;;2.75;;
55710;SDS011;41612;51.994;5.880;2023-04-24T09:52:05;10.32;;;3.38;;
55710;SDS011;41612;51.994;5.880;2023-04-24T09:54:32;11.35;;;3.42;;
55710;SDS011;41612;51.994;5.880;2023-04-24T09:56:59;6.45;;;3.38;;
55710;SDS011;41612;51.994;5.880;2023-04-24T09:59:27;14.50;;;4.18;;
55710;SDS011;41612;51.994;5.880;2023-04-24T10:01:53;11.10;;;3.42;;
55710;SDS011;41612;51.994;5.880;2023-04-24T10:04:20;13.02;;;3.80;;
55710;SDS011;41612;51.994;5.880;2023-04-24T10:06:48;12.43;;;3.60;;
55710;SDS011;41612;51.994;5.880;2023-04-24T10:09:15;10.20;;;3.15;;
55710;SDS011;41612;51.994;5.880;2023-04-24T10:11:49;10.75;;;3.33;;
55710;SDS011;41612;51.994;5.880;2023-04-24T10:14:25;8.05;;;2.80;;
55710;SDS011;41612;51.994;5.880;2023-04-24T10:16:52;9.32;;;3.60;;
55710;SDS011;41612;51.994;5.880;2023-04-24T10:19:19;8.75;;;2.83;;
55710;SDS011;41612;51.994;5.880;2023-04-24T10:21:45;8.43;;;3.83;;
55710;SDS011;41612;51.994;5.880;2023-04-24T10:24:15;8.80;;;3.47;;
55710;SDS011;41612;51.994;5.880;2023-04-24T10:26:43;8.95;;;2.88;;
55710;SDS011;41612;51.994;5.880;2023-04-24T10:29:10;9.27;;;2.80;;
55710;SDS011;41612;51.994;5.880;2023-04-24T10:31:38;8.07;;;3.00;;
55710;SDS011;41612;51.994;5.880;2023-04-24T10:34:08;9.00;;;2.42;;
55710;SDS011;41612;51.994;5.880;2023-04-24T10:36:35;7.82;;;2.88;;
55710;SDS011;41612;51.994;5.880;2023-04-24T10:39:06;5.05;;;2.55;;
55710;SDS011;41612;51.994;5.880;2023-04-24T10:41:36;4.97;;;2.42;;
55710;SDS011;41612;51.994;5.880;2023-04-24T10:46:32;6.78;;;2.67;;
55710;SDS011;41612;51.994;5.880;2023-04-24T10:48:58;6.60;;;2.60;;
55710;SDS011;41612;51.994;5.880;2023-04-24T10:51:51;9.13;;;3.08;;
55710;SDS011;41612;51.994;5.880;2023-04-24T10:54:28;7.95;;;2.42;;
55710;SDS011;41612;51.994;5.880;2023-04-24T10:59:44;6.65;;;2.40;;
55710;SDS011;41612;51.994;5.880;2023-04-24T11:02:11;6.95;;;2.40;;
55710;SDS011;41612;51.994;5.880;2023-04-24T11:04:40;6.22;;;2.42;;
55710;SDS011;41612;51.994;5.880;2023-04-24T11:07:11;6.75;;;2.25;;
55710;SDS011;41612;51.994;5.880;2023-04-24T11:09:37;10.32;;;2.78;;
55710;SDS011;41612;51.994;5.880;2023-04-24T11:12:09;9.52;;;2.10;;
55710;SDS011;41612;51.994;5.880;2023-04-24T11:17:31;13.02;;;2.40;;
55710;SDS011;41612;51.994;5.880;2023-04-24T11:20:04;5.53;;;2.60;;
55710;SDS011;41612;51.994;5.880;2023-04-24T11:22:35;6.13;;;2.38;;
55710;SDS011;41612;51.994;5.880;2023-04-24T11:25:02;4.15;;;1.98;;
55710;SDS011;41612;51.994;5.880;2023-04-24T11:27:31;5.30;;;1.77;;
55710;SDS011;41612;51.994;5.880;2023-04-24T11:30:04;6.38;;;1.67;;
55710;SDS011;41612;51.994;5.880;2023-04-24T11:37:40;5.07;;;1.90;;
55710;SDS011;41612;51.994;5.880;2023-04-24T11:40:08;4.28;;;0.90;;
55710;SDS011;41612;51.994;5.880;2023-04-24T11:42:39;4.55;;;1.48;;
55710;SDS011;41612;51.994;5.880;2023-04-24T11:45:16;3.78;;;1.17;;
55710;SDS011;41612;51.994;5.880;2023-04-24T11:47:42;5.80;;;1.23;;
55710;SDS011;41612;51.994;5.880;2023-04-24T11:50:11;3.90;;;1.30;;
55710;SDS011;41612;51.994;5.880;2023-04-24T11:52:42;4.55;;;2.25;;
55710;SDS011;41612;51.994;5.880;2023-04-24T11:57:47;2.63;;;1.25;;
55710;SDS011;41612;51.994;5.880;2023-04-24T12:02:43;3.83;;;1.25;;
55710;SDS011;41612;51.994;5.880;2023-04-24T12:05:27;3.50;;;1.58;;
55710;SDS011;41612;51.994;5.880;2023-04-24T12:07:53;6.85;;;1.30;;
55710;SDS011;41612;51.994;5.880;2023-04-24T12:12:49;3.13;;;1.40;;
55710;SDS011;41612;51.994;5.880;2023-04-24T12:15:17;4.03;;;1.50;;
55710;SDS011;41612;51.994;5.880;2023-04-24T12:17:44;3.25;;;1.30;;
55710;SDS011;41612;51.994;5.880;2023-04-24T12:20:10;7.43;;;1.92;;
55710;SDS011;41612;51.994;5.880;2023-04-24T12:22:53;3.28;;;1.33;;
55710;SDS011;41612;51.994;5.880;2023-04-24T12:25:26;4.20;;;1.63;;
55710;SDS011;41612;51.994;5.880;2023-04-24T12:30:43;4.53;;;1.48;;
55710;SDS011;41612;51.994;5.880;2023-04-24T12:33:16;6.07;;;1.42;;
55710;SDS011;41612;51.994;5.880;2023-04-24T12:35:43;4.10;;;1.05;;
55710;SDS011;41612;51.994;5.880;2023-04-24T12:38:10;1.77;;;0.90;;
55710;SDS011;41612;51.994;5.880;2023-04-24T12:40:40;2.72;;;0.95;;
55710;SDS011;41612;51.994;5.880;2023-04-24T12:43:17;5.50;;;1.25;;
55710;SDS011;41612;51.994;5.880;2023-04-24T12:45:44;2.65;;;0.90;;
55710;SDS011;41612;51.994;5.880;2023-04-24T12:48:11;3.03;;;0.82;;
55710;SDS011;41612;51.994;5.880;2023-04-24T12:50:39;3.88;;;1.02;;
55710;SDS011;41612;51.994;5.880;2023-04-24T12:53:05;2.45;;;1.00;;
55710;SDS011;41612;51.994;5.880;2023-04-24T12:55:33;3.80;;;1.25;;
55710;SDS011;41612;51.994;5.880;2023-04-24T12:57:59;2.38;;;1.02;;
55710;SDS011;41612;51.994;5.880;2023-04-24T13:00:27;3.92;;;1.42;;
55710;SDS011;41612;51.994;5.880;2023-04-24T13:02:52;3.28;;;1.10;;
55710;SDS011;41612;51.994;5.880;2023-04-24T13:05:18;3.08;;;1.10;;
55710;SDS011;41612;51.994;5.880;2023-04-24T13:07:44;4.78;;;1.20;;
55710;SDS011;41612;51.994;5.880;2023-04-24T13:10:10;4.65;;;1.65;;
55710;SDS011;41612;51.994;5.880;2023-04-24T13:12:38;3.22;;;1.23;;
55710;SDS011;41612;51.994;5.880;2023-04-24T13:15:05;2.75;;;0.82;;
55710;SDS011;41612;51.994;5.880;2023-04-24T13:17:32;5.55;;;1.65;;
55710;SDS011;41612;51.994;5.880;2023-04-24T13:19:58;6.15;;;1.42;;
55710;SDS011;41612;51.994;5.880;2023-04-24T13:22:27;7.35;;;1.20;;
55710;SDS011;41612;51.994;5.880;2023-04-24T13:25:04;6.32;;;1.33;;
55710;SDS011;41612;51.994;5.880;2023-04-24T13:27:31;4.97;;;1.38;;
55710;SDS011;41612;51.994;5.880;2023-04-24T13:29:57;2.75;;;1.00;;
55710;SDS011;41612;51.994;5.880;2023-04-24T13:32:22;7.97;;;1.45;;
55710;SDS011;41612;51.994;5.880;2023-04-24T13:34:48;5.90;;;1.73;;
55710;SDS011;41612;51.994;5.880;2023-04-24T13:37:17;3.67;;;1.00;;
55710;SDS011;41612;51.994;5.880;2023-04-24T13:39:48;3.65;;;1.30;;
55710;SDS011;41612;51.994;5.880;2023-04-24T13:42:14;4.18;;;1.20;;
55710;SDS011;41612;51.994;5.880;2023-04-24T13:44:40;6.10;;;1.75;;
55710;SDS011;41612;51.994;5.880;2023-04-24T13:47:08;2.67;;;1.10;;
55710;SDS011;41612;51.994;5.880;2023-04-24T13:49:34;6.65;;;1.70;;
55710;SDS011;41612;51.994;5.880;2023-04-24T13:52:00;8.52;;;1.83;;
55710;SDS011;41612;51.994;5.880;2023-04-24T13:54:27;8.98;;;1.70;;
55710;SDS011;41612;51.994;5.880;2023-04-24T13:56:52;4.28;;;1.55;;
55710;SDS011;41612;51.994;5.880;2023-04-24T13:59:21;3.17;;;1.08;;
55710;SDS011;41612;51.994;5.880;2023-04-24T14:01:47;3.58;;;0.93;;
55710;SDS011;41612;51.994;5.880;2023-04-24T14:04:13;6.82;;;1.20;;
55710;SDS011;41612;51.994;5.880;2023-04-24T14:06:38;5.68;;;1.13;;
55710;SDS011;41612;51.994;5.880;2023-04-24T14:09:04;3.10;;;1.23;;
55710;SDS011;41612;51.994;5.880;2023-04-24T14:11:38;5.68;;;1.58;;
55710;SDS011;41612;51.994;5.880;2023-04-24T14:14:07;6.38;;;2.03;;
55710;SDS011;41612;51.994;5.880;2023-04-24T14:16:34;7.72;;;1.70;;
55710;SDS011;41612;51.994;5.880;2023-04-24T14:19:00;5.53;;;1.60;;
55710;SDS011;41612;51.994;5.880;2023-04-24T14:21:26;8.40;;;2.17;;
55710;SDS011;41612;51.994;5.880;2023-04-24T14:23:51;6.95;;;2.40;;
55710;SDS011;41612;51.994;5.880;2023-04-24T14:26:20;2.13;;;1.20;;
55710;SDS011;41612;51.994;5.880;2023-04-24T14:28:46;5.97;;;1.95;;
55710;SDS011;41612;51.994;5.880;2023-04-24T14:31:12;3.33;;;1.48;;
55710;SDS011;41612;51.994;5.880;2023-04-24T14:33:38;7.80;;;1.85;;
55710;SDS011;41612;51.994;5.880;2023-04-24T14:38:58;4.25;;;1.25;;
55710;SDS011;41612;51.994;5.880;2023-04-24T14:41:24;8.27;;;2.17;;
55710;SDS011;41612;51.994;5.880;2023-04-24T14:43:50;6.68;;;1.48;;
55710;SDS011;41612;51.994;5.880;2023-04-24T14:46:16;2.95;;;1.13;;
55710;SDS011;41612;51.994;5.880;2023-04-24T14:48:42;3.28;;;1.40;;
55710;SDS011;41612;51.994;5.880;2023-04-24T14:51:08;5.00;;;1.60;;
55710;SDS011;41612;51.994;5.880;2023-04-24T14:53:33;3.17;;;1.20;;
55710;SDS011;41612;51.994;5.880;2023-04-24T14:55:59;3.15;;;1.67;;
55710;SDS011;41612;51.994;5.880;2023-04-24T14:58:25;5.80;;;1.90;;
55710;SDS011;41612;51.994;5.880;2023-04-24T15:00:51;3.35;;;1.73;;
55710;SDS011;41612;51.994;5.880;2023-04-24T15:03:19;6.18;;;2.08;;
55710;SDS011;41612;51.994;5.880;2023-04-24T15:05:46;6.18;;;2.00;;
55710;SDS011;41612;51.994;5.880;2023-04-24T15:08:12;7.25;;;2.30;;
55710;SDS011;41612;51.994;5.880;2023-04-24T15:10:38;7.97;;;2.25;;
55710;SDS011;41612;51.994;5.880;2023-04-24T15:13:04;6.00;;;2.00;;
55710;SDS011;41612;51.994;5.880;2023-04-24T15:15:30;5.10;;;2.05;;
55710;SDS011;41612;51.994;5.880;2023-04-24T15:17:56;5.97;;;1.63;;
55710;SDS011;41612;51.994;5.880;2023-04-24T15:20:22;8.70;;;2.00;;
55710;SDS011;41612;51.994;5.880;2023-04-24T15:22:47;6.43;;;1.90;;
55710;SDS011;41612;51.994;5.880;2023-04-24T15:25:13;9.02;;;2.58;;
55710;SDS011;41612;51.994;5.880;2023-04-24T15:27:43;7.07;;;2.30;;
55710;SDS011;41612;51.994;5.880;2023-04-24T15:30:09;6.68;;;1.85;;
55710;SDS011;41612;51.994;5.880;2023-04-24T15:32:36;9.45;;;2.72;;
55710;SDS011;41612;51.994;5.880;2023-04-24T15:35:05;5.97;;;2.40;;
55710;SDS011;41612;51.994;5.880;2023-04-24T15:37:31;3.58;;;1.60;;
55710;SDS011;41612;51.994;5.880;2023-04-24T15:39:57;5.97;;;1.83;;
55710;SDS011;41612;51.994;5.880;2023-04-24T15:42:25;4.85;;;1.77;;
55710;SDS011;41612;51.994;5.880;2023-04-24T15:44:51;6.97;;;2.58;;
55710;SDS011;41612;51.994;5.880;2023-04-24T15:47:17;6.63;;;1.88;;
55710;SDS011;41612;51.994;5.880;2023-04-24T15:49:43;6.35;;;2.17;;
55710;SDS011;41612;51.994;5.880;2023-04-24T15:52:09;6.15;;;2.42;;
55710;SDS011;41612;51.994;5.880;2023-04-24T15:54:35;9.10;;;2.70;;
55710;SDS011;41612;51.994;5.880;2023-04-24T15:57:05;6.05;;;1.73;;
55710;SDS011;41612;51.994;5.880;2023-04-24T16:18:33;8.43;;;3.03;;
55710;SDS011;41612;51.994;5.880;2023-04-24T16:20:59;8.68;;;2.83;;
55710;SDS011;41612;51.994;5.880;2023-04-24T16:23:29;7.35;;;2.15;;
55710;SDS011;41612;51.994;5.880;2023-04-24T16:25:55;10.30;;;2.58;;
55710;SDS011;41612;51.994;5.880;2023-04-24T16:28:23;6.38;;;2.35;;
55710;SDS011;41612;51.994;5.880;2023-04-24T16:30:48;8.70;;;2.75;;
55710;SDS011;41612;51.994;5.880;2023-04-24T16:33:17;8.27;;;2.58;;
55710;SDS011;41612;51.994;5.880;2023-04-24T16:35:43;12.63;;;3.75;;
55710;SDS011;41612;51.994;5.880;2023-04-24T16:38:10;11.15;;;3.80;;
55710;SDS011;41612;51.994;5.880;2023-04-24T16:54:57;5.28;;;2.45;;
55710;SDS011;41612;51.994;5.880;2023-04-24T16:57:23;10.10;;;3.22;;
55710;SDS011;41612;51.994;5.880;2023-04-24T16:59:49;7.05;;;2.90;;
55710;SDS011;41612;51.994;5.880;2023-04-24T17:02:15;7.53;;;2.80;;
55710;SDS011;41612;51.994;5.880;2023-04-24T17:04:40;10.98;;;3.05;;
55710;SDS011;41612;51.994;5.880;2023-04-24T17:07:06;9.13;;;3.15;;
55710;SDS011;41612;51.994;5.880;2023-04-24T17:09:32;11.55;;;3.20;;
55710;SDS011;41612;51.994;5.880;2023-04-24T17:12:02;9.77;;;3.55;;
55710;SDS011;41612;51.994;5.880;2023-04-24T17:14:28;8.98;;;3.30;;
55710;SDS011;41612;51.994;5.880;2023-04-24T17:16:57;7.25;;;2.65;;
55710;SDS011;41612;51.994;5.880;2023-04-24T17:19:25;8.45;;;2.80;;
55710;SDS011;41612;51.994;5.880;2023-04-24T17:21:51;8.70;;;3.15;;
55710;SDS011;41612;51.994;5.880;2023-04-24T17:24:17;6.13;;;2.80;;
55710;SDS011;41612;51.994;5.880;2023-04-24T17:26:42;5.78;;;2.95;;
55710;SDS011;41612;51.994;5.880;2023-04-24T17:29:08;6.97;;;3.17;;
55710;SDS011;41612;51.994;5.880;2023-04-24T17:31:38;6.50;;;3.10;;
55710;SDS011;41612;51.994;5.880;2023-04-24T17:34:03;12.82;;;3.47;;
55710;SDS011;41612;51.994;5.880;2023-04-24T17:36:31;7.88;;;3.58;;
55710;SDS011;41612;51.994;5.880;2023-04-24T17:38:57;11.57;;;3.75;;
55710;SDS011;41612;51.994;5.880;2023-04-24T17:41:23;11.65;;;3.58;;
55710;SDS011;41612;51.994;5.880;2023-04-24T17:43:49;9.10;;;3.30;;
55710;SDS011;41612;51.994;5.880;2023-04-24T17:46:15;6.10;;;2.55;;
55710;SDS011;41612;51.994;5.880;2023-04-24T17:48:41;8.85;;;3.05;;
55710;SDS011;41612;51.994;5.880;2023-04-24T17:51:07;7.72;;;3.28;;
55710;SDS011;41612;51.994;5.880;2023-04-24T17:53:33;5.93;;;2.60;;
55710;SDS011;41612;51.994;5.880;2023-04-24T17:55:59;11.32;;;4.00;;
55710;SDS011;41612;51.994;5.880;2023-04-24T17:58:28;9.85;;;3.30;;
55710;SDS011;41612;51.994;5.880;2023-04-24T18:00:55;9.95;;;3.95;;
55710;SDS011;41612;51.994;5.880;2023-04-24T18:03:20;11.48;;;3.63;;
55710;SDS011;41612;51.994;5.880;2023-04-24T18:05:46;12.10;;;4.68;;
55710;SDS011;41612;51.994;5.880;2023-04-24T18:08:17;8.68;;;3.55;;
55710;SDS011;41612;51.994;5.880;2023-04-24T18:10:55;11.75;;;2.65;;
55710;SDS011;41612;51.994;5.880;2023-04-24T19:54:27;20.60;;;4.38;;
55710;SDS011;41612;51.994;5.880;2023-04-24T19:56:53;19.50;;;5.25;;
55710;SDS011;41612;51.994;5.880;2023-04-24T19:59:20;11.57;;;3.92;;
55710;SDS011;41612;51.994;5.880;2023-04-24T20:01:45;15.95;;;3.95;;
55710;SDS011;41612;51.994;5.880;2023-04-24T20:04:49;14.85;;;4.38;;
55710;SDS011;41612;51.994;5.880;2023-04-24T20:07:15;13.05;;;4.47;;
55710;SDS011;41612;51.994;5.880;2023-04-24T20:09:41;13.38;;;3.45;;
55710;SDS011;41612;51.994;5.880;2023-04-24T20:12:15;11.52;;;4.43;;
55710;SDS011;41612;51.994;5.880;2023-04-24T20:14:41;18.70;;;4.68;;
55710;SDS011;41612;51.994;5.880;2023-04-24T20:17:07;14.63;;;5.20;;
55710;SDS011;41612;51.994;5.880;2023-04-24T20:19:32;12.30;;;3.55;;
55710;SDS011;41612;51.994;5.880;2023-04-24T20:21:58;10.95;;;4.22;;
55710;SDS011;41612;51.994;5.880;2023-04-24T20:24:27;12.57;;;4.10;;
55710;SDS011;41612;51.994;5.880;2023-04-24T20:26:53;10.00;;;3.97;;
55710;SDS011;41612;51.994;5.880;2023-04-24T20:29:19;21.77;;;3.47;;
55710;SDS011;41612;51.994;5.880;2023-04-24T20:31:48;8.50;;;3.38;;
55710;SDS011;41612;51.994;5.880;2023-04-24T20:34:14;10.93;;;3.50;;
55710;SDS011;41612;51.994;5.880;2023-04-24T20:36:40;14.05;;;3.83;;
55710;SDS011;41612;51.994;5.880;2023-04-24T20:39:15;11.13;;;3.88;;
55710;SDS011;41612;51.994;5.880;2023-04-24T20:41:41;11.68;;;4.10;;
55710;SDS011;41612;51.994;5.880;2023-04-24T20:44:08;10.38;;;4.10;;
55710;SDS011;41612;51.994;5.880;2023-04-24T20:46:34;14.07;;;4.93;;
55710;SDS011;41612;51.994;5.880;2023-04-24T20:48:59;10.55;;;3.90;;
55710;SDS011;41612;51.994;5.880;2023-04-24T20:51:27;12.32;;;4.15;;
55710;SDS011;41612;51.994;5.880;2023-04-24T20:53:55;10.95;;;3.67;;
55710;SDS011;41612;51.994;5.880;2023-04-24T20:56:20;8.77;;;3.53;;
55710;SDS011;41612;51.994;5.880;2023-04-24T20:58:47;8.45;;;3.03;;
55710;SDS011;41612;51.994;5.880;2023-04-24T21:01:18;8.90;;;3.13;;
55710;SDS011;41612;51.994;5.880;2023-04-24T21:03:44;9.60;;;3.60;;
55710;SDS011;41612;51.994;5.880;2023-04-24T21:06:10;10.68;;;4.00;;
55710;SDS011;41612;51.994;5.880;2023-04-24T21:08:36;13.02;;;3.33;;
55710;SDS011;41612;51.994;5.880;2023-04-24T21:11:02;12.05;;;3.25;;
55710;SDS011;41612;51.994;5.880;2023-04-24T21:13:28;10.50;;;3.90;;
55710;SDS011;41612;51.994;5.880;2023-04-24T21:16:06;5.53;;;3.47;;
55710;SDS011;41612;51.994;5.880;2023-04-24T21:18:32;10.02;;;3.45;;
55710;SDS011;41612;51.994;5.880;2023-04-24T21:21:01;7.03;;;2.85;;
55710;SDS011;41612;51.994;5.880;2023-04-24T21:23:29;8.00;;;3.85;;
55710;SDS011;41612;51.994;5.880;2023-04-24T21:25:55;8.50;;;2.85;;
55710;SDS011;41612;51.994;5.880;2023-04-24T21:28:24;12.05;;;3.28;;
55710;SDS011;41612;51.994;5.880;2023-04-24T21:30:52;11.80;;;3.50;;
55710;SDS011;41612;51.994;5.880;2023-04-24T21:33:18;9.63;;;3.22;;
55710;SDS011;41612;51.994;5.880;2023-04-24T21:35:47;6.53;;;2.60;;
55710;SDS011;41612;51.994;5.880;2023-04-24T21:38:13;8.85;;;2.75;;
55710;SDS011;41612;51.994;5.880;2023-04-24T21:40:38;7.50;;;3.45;;
55710;SDS011;41612;51.994;5.880;2023-04-24T21:43:08;6.22;;;2.30;;
55710;SDS011;41612;51.994;5.880;2023-04-24T21:45:33;11.65;;;4.50;;
55710;SDS011;41612;51.994;5.880;2023-04-24T21:47:59;6.68;;;2.70;;
55710;SDS011;41612;51.994;5.880;2023-04-24T21:50:25;4.95;;;3.03;;
55710;SDS011;41612;51.994;5.880;2023-04-24T21:52:51;8.07;;;3.08;;
55710;SDS011;41612;51.994;5.880;2023-04-24T21:55:17;6.65;;;2.90;;